Pagina principale
METAR-TAF:

METAR-TAF

Aeroporti :

Houston, Texas, Stati Uniti

Aeroporto Intercontinentale di Houston-George Bush

latitudine: 29-59-33N, longitudine: 095-21-50W, altezza: 29 m

Osservazione

Il bollettino è stato emesso 18 minuti fa, alle 00:53 UTC
Vento 5 kt da nord-ovest
Temperature 23°C
Umidità 50%
Pressione 1015 hPa
Visibilità: 16.1 km
Poco nuvoloso ad un'altezza di 25000 ft

METAR: KIAH 240053Z 32005KT 10SM FEW250 23/12 A2997 RMK AO2 SLP149 T02330122

Ora: 20:11 (01:11 UTC)

Previsione

Il bollettino è stato emesso 1 ora e 43 minuti fa, alle 23:28 UTC
Previsione valida dal 24 alle 00 UTC al 25 alle 06 UTC
Vento 3 kt da direzioni variabili
Visibilità: 10 km
Cielo sereno
A partire da 24 alle 1500 UTC
Vento 6 kt da nord/nord-ovest
Visibilità: 10 km
Poco nuvoloso ad un'altezza di 3000 ft
Nubi sparse ad un'altezza di 25000 ft

TAF: KIAH 232328Z 2400/2506 VRB03KT P6SM SKC FM241500 34006KT P6SM FEW030 SCT250

Osservazioni e previsioni meteorologiche di più di 4000 aeroporti (messaggi METAR e TAF).

Le stazioni disponibili sono rappresentate dai dischi gialli e rossi sulla carta.

Puntare il mouse per vedere il nome della stazione.

Clicca sopra per visualizzare le osservazioni e previsioni meteorologiche.

Per cambiare la mappa : fare clic sui pulsanti verdi con una croce nera per ingrandire, il pulsante verde con un trattino per diminuire, o sulla freccia verde per le mappe adiacenti.


METAR-TAF: